createdAt,value
2023-01-06T00:01:24.584Z,9.97
2023-01-06T00:03:52.842Z,10.60
2023-01-06T00:06:23.085Z,9.27
2023-01-06T00:08:51.004Z,10.60
2023-01-06T00:11:19.654Z,11.10
2023-01-06T00:13:47.578Z,11.87
2023-01-06T00:16:17.573Z,10.17
2023-01-06T00:18:46.958Z,8.93
2023-01-06T00:21:15.522Z,9.53
2023-01-06T00:23:43.578Z,10.37
2023-01-06T00:26:11.927Z,9.27
2023-01-06T00:28:39.880Z,11.20
2023-01-06T00:31:08.889Z,9.73
2023-01-06T00:33:37.003Z,10.17
2023-01-06T00:36:07.066Z,8.67
2023-01-06T00:38:36.471Z,7.80
2023-01-06T00:41:04.972Z,8.50
2023-01-06T00:43:33.005Z,6.93
2023-01-06T00:46:02.863Z,8.93
2023-01-06T00:48:30.933Z,9.07
2023-01-06T00:51:01.428Z,8.30
2023-01-06T00:53:30.838Z,8.00
2023-01-06T00:56:01.197Z,7.07
2023-01-06T00:58:30.994Z,9.43
2023-01-06T01:00:59.154Z,6.70
2023-01-06T01:03:27.121Z,6.93
2023-01-06T01:06:00.012Z,7.03
2023-01-06T01:08:28.150Z,7.27
2023-01-06T01:10:57.702Z,8.00
2023-01-06T01:13:25.667Z,7.90
2023-01-06T01:15:53.679Z,7.07
2023-01-06T01:18:21.694Z,7.70
2023-01-06T01:20:49.663Z,7.03
2023-01-06T01:23:17.570Z,7.00
2023-01-06T01:25:45.481Z,5.53
2023-01-06T01:28:14.941Z,7.93
2023-01-06T01:30:42.976Z,5.53
2023-01-06T01:33:11.130Z,7.27
2023-01-06T01:35:39.102Z,7.80
2023-01-06T01:38:07.151Z,8.13
2023-01-06T01:40:35.161Z,7.87
2023-01-06T01:43:03.156Z,4.93
2023-01-06T01:45:32.742Z,5.37
2023-01-06T01:48:03.880Z,5.57
2023-01-06T01:50:34.127Z,7.73
2023-01-06T01:53:04.728Z,6.13
2023-01-06T01:55:33.369Z,6.17
2023-01-06T01:58:03.234Z,6.33
2023-01-06T02:00:32.667Z,7.87
2023-01-06T02:03:00.853Z,6.07
2023-01-06T02:05:29.418Z,7.83
2023-01-06T02:07:58.728Z,6.50
2023-01-06T02:10:26.658Z,6.57
2023-01-06T02:12:56.008Z,6.53
2023-01-06T02:15:25.822Z,6.90
2023-01-06T02:18:08.537Z,5.83
2023-01-06T02:20:47.714Z,6.77
2023-01-06T02:23:34.356Z,5.83
2023-01-06T02:26:14.376Z,3.80
2023-01-06T02:29:00.122Z,5.47
2023-01-06T02:31:43.685Z,5.30
2023-01-06T02:34:14.988Z,4.43
2023-01-06T02:36:46.576Z,4.60
2023-01-06T02:39:20.767Z,6.70
2023-01-06T02:41:54.608Z,5.70
2023-01-06T02:44:26.103Z,6.53
2023-01-06T02:47:01.395Z,6.43
2023-01-06T02:49:32.144Z,6.30
2023-01-06T02:52:01.468Z,5.80
2023-01-06T02:54:32.888Z,5.77
2023-01-06T02:57:05.114Z,4.27
2023-01-06T02:59:35.573Z,3.80
2023-01-06T03:02:06.101Z,4.03
2023-01-06T03:04:36.995Z,4.57
2023-01-06T03:07:05.253Z,3.50
2023-01-06T03:09:35.849Z,4.20
2023-01-06T03:12:05.450Z,7.30
2023-01-06T03:14:35.475Z,4.37
2023-01-06T03:17:05.071Z,3.30
2023-01-06T03:19:33.606Z,3.80
2023-01-06T03:22:02.058Z,4.03
2023-01-06T03:24:30.224Z,4.80
2023-01-06T03:26:58.420Z,4.60
2023-01-06T03:29:26.380Z,3.40
2023-01-06T03:31:59.903Z,3.30
2023-01-06T03:34:32.504Z,4.73
2023-01-06T03:37:04.023Z,3.77
2023-01-06T03:39:37.114Z,5.43
2023-01-06T03:42:36.216Z,4.33
2023-01-06T03:45:07.961Z,3.50
2023-01-06T03:47:40.832Z,3.30
2023-01-06T03:50:13.168Z,4.00
2023-01-06T03:52:44.493Z,3.23
2023-01-06T03:55:15.562Z,3.57
2023-01-06T03:57:45.547Z,2.47
2023-01-06T04:00:14.641Z,1.90
2023-01-06T04:02:43.046Z,3.87
2023-01-06T04:05:15.083Z,2.37
2023-01-06T04:07:43.993Z,2.20
2023-01-06T04:10:12.717Z,2.63
2023-01-06T04:12:39.891Z,2.30
2023-01-06T04:15:08.739Z,4.60
2023-01-06T04:17:36.916Z,2.73
2023-01-06T04:20:05.111Z,2.40
2023-01-06T04:22:34.522Z,4.67
2023-01-06T04:25:02.536Z,3.30
2023-01-06T04:27:30.448Z,2.93
2023-01-06T04:29:58.401Z,4.67
2023-01-06T04:32:26.428Z,2.70
2023-01-06T04:34:54.504Z,2.60
2023-01-06T04:37:22.483Z,3.43
2023-01-06T04:39:51.920Z,4.10
2023-01-06T04:42:19.853Z,3.43
2023-01-06T04:44:47.810Z,2.53
2023-01-06T04:47:15.819Z,3.23
2023-01-06T04:49:43.826Z,3.33
2023-01-06T04:52:11.980Z,3.20
2023-01-06T04:54:42.200Z,3.33
2023-01-06T04:57:11.652Z,3.97
2023-01-06T04:59:42.553Z,3.80
2023-01-06T05:02:10.806Z,2.80
2023-01-06T05:04:47.353Z,3.83
2023-01-06T05:07:16.115Z,3.23
2023-01-06T05:09:44.121Z,3.57
2023-01-06T05:12:13.698Z,3.50
2023-01-06T05:14:41.694Z,4.03
2023-01-06T05:17:12.013Z,4.53
2023-01-06T05:19:41.821Z,4.73
2023-01-06T05:22:09.841Z,3.77
2023-01-06T05:24:37.901Z,4.43
2023-01-06T05:27:05.857Z,3.77
2023-01-06T05:29:35.313Z,4.50
2023-01-06T05:32:03.369Z,5.33
2023-01-06T05:34:31.324Z,3.93
2023-01-06T05:36:59.280Z,6.43
2023-01-06T05:39:27.279Z,3.87
2023-01-06T05:41:55.230Z,4.00
2023-01-06T05:44:23.149Z,2.90
2023-01-06T05:46:52.531Z,3.90
2023-01-06T05:49:20.473Z,4.10
2023-01-06T05:51:48.584Z,3.20
2023-01-06T05:54:16.636Z,3.77
2023-01-06T05:56:44.587Z,5.43
2023-01-06T05:59:12.648Z,3.63
2023-01-06T06:01:40.846Z,3.33
2023-01-06T06:04:10.357Z,5.27
2023-01-06T06:06:38.341Z,2.87
2023-01-06T06:09:06.444Z,7.37
2023-01-06T06:11:34.856Z,6.07
2023-01-06T06:14:02.839Z,3.57
2023-01-06T06:16:30.840Z,3.93
2023-01-06T06:18:59.726Z,4.43
2023-01-06T06:21:29.717Z,4.13
2023-01-06T06:23:58.605Z,2.67
2023-01-06T06:26:26.857Z,3.27
2023-01-06T06:28:55.043Z,5.60
2023-01-06T06:31:24.042Z,4.50
2023-01-06T06:33:52.610Z,4.87
2023-01-06T06:36:21.028Z,3.73
2023-01-06T06:38:51.198Z,6.03
2023-01-06T06:41:19.750Z,3.20
2023-01-06T06:43:48.108Z,3.90
2023-01-06T06:46:16.404Z,4.13
2023-01-06T06:48:44.574Z,4.27
2023-01-06T06:51:13.772Z,2.73
2023-01-06T06:53:42.278Z,2.97
2023-01-06T06:56:14.893Z,2.73
2023-01-06T06:58:43.435Z,3.37
2023-01-06T07:01:12.692Z,3.23
2023-01-06T07:03:41.375Z,4.07
2023-01-06T07:06:10.256Z,3.13
2023-01-06T07:08:39.009Z,3.63
2023-01-06T07:11:14.737Z,3.70
2023-01-06T07:13:43.683Z,3.20
2023-01-06T07:16:12.334Z,3.60
2023-01-06T07:18:40.998Z,4.57
2023-01-06T07:21:09.408Z,3.63
2023-01-06T07:23:37.895Z,2.73
2023-01-06T07:26:06.423Z,3.10
2023-01-06T07:28:36.297Z,3.40
2023-01-06T07:31:04.579Z,4.83
2023-01-06T07:33:32.847Z,3.20
2023-01-06T07:36:01.082Z,4.10
2023-01-06T07:38:32.528Z,4.80
2023-01-06T07:41:01.971Z,4.00
2023-01-06T07:43:30.377Z,4.13
2023-01-06T07:46:00.273Z,5.33
2023-01-06T07:48:28.624Z,4.23
2023-01-06T07:50:58.836Z,4.57
2023-01-06T07:53:27.134Z,3.83
2023-01-06T07:55:55.696Z,4.10
2023-01-06T07:58:25.664Z,9.13
2023-01-06T08:00:54.310Z,5.43
2023-01-06T08:03:24.173Z,5.23
2023-01-06T08:05:52.898Z,4.93
2023-01-06T08:08:20.851Z,4.67
2023-01-06T08:10:48.973Z,4.40
2023-01-06T08:13:18.885Z,5.47
2023-01-06T08:15:52.189Z,4.00
2023-01-06T08:18:20.263Z,5.17
2023-01-06T08:20:49.669Z,6.67
2023-01-06T08:23:17.675Z,4.97
2023-01-06T08:25:45.724Z,5.37
2023-01-06T08:28:13.688Z,6.10
2023-01-06T08:30:43.720Z,4.57
2023-01-06T08:33:13.606Z,4.83
2023-01-06T08:35:43.689Z,4.30
2023-01-06T08:38:13.495Z,3.47
2023-01-06T08:40:41.520Z,3.47
2023-01-06T08:43:11.762Z,4.33
2023-01-06T08:45:40.392Z,3.47
2023-01-06T08:48:08.454Z,6.10
2023-01-06T08:50:36.585Z,3.43
2023-01-06T08:53:05.450Z,4.30
2023-01-06T08:55:35.255Z,3.53
2023-01-06T08:58:03.266Z,3.63
2023-01-06T09:00:31.253Z,3.50
2023-01-06T09:02:59.297Z,2.97
2023-01-06T09:05:27.331Z,320.93
2023-01-06T09:07:55.824Z,19.70
2023-01-06T09:10:23.950Z,131.17
2023-01-06T09:12:53.416Z,8.67
2023-01-06T09:15:21.585Z,5.50
2023-01-06T09:17:50.252Z,6.27
2023-01-06T09:20:18.268Z,3.27
2023-01-06T09:22:46.494Z,3.80
2023-01-06T09:25:14.468Z,2.67
2023-01-06T09:27:42.653Z,5.13
2023-01-06T09:30:13.249Z,5.43
2023-01-06T09:32:41.271Z,4.20
2023-01-06T09:35:09.967Z,8.40
2023-01-06T09:37:38.100Z,4.97
2023-01-06T09:40:06.608Z,6.30
2023-01-06T09:42:49.934Z,4.00
2023-01-06T09:45:20.445Z,3.90
2023-01-06T09:47:50.341Z,3.20
2023-01-06T09:50:22.102Z,5.47
2023-01-06T09:52:53.130Z,3.70
2023-01-06T09:55:22.545Z,3.70
2023-01-06T09:57:53.558Z,5.43
2023-01-06T10:00:27.872Z,5.20
2023-01-06T10:02:56.698Z,6.00
2023-01-06T10:05:29.521Z,4.90
2023-01-06T10:08:01.746Z,4.40
2023-01-06T10:10:34.785Z,4.27
2023-01-06T10:13:11.630Z,5.30
2023-01-06T10:15:46.173Z,6.53
2023-01-06T10:18:23.272Z,5.50
2023-01-06T10:20:56.727Z,6.67
2023-01-06T10:23:30.804Z,7.27
2023-01-06T10:26:04.704Z,5.23
2023-01-06T10:28:35.280Z,7.17
2023-01-06T10:31:06.992Z,7.30
2023-01-06T10:33:37.555Z,7.17
2023-01-06T10:36:11.361Z,6.20
2023-01-06T10:38:41.852Z,9.10
2023-01-06T10:41:13.675Z,6.37
2023-01-06T10:43:42.100Z,6.33
2023-01-06T10:46:12.189Z,8.13
2023-01-06T10:48:41.377Z,6.10
2023-01-06T10:51:34.174Z,6.10
2023-01-06T10:54:03.272Z,7.60
2023-01-06T10:56:32.007Z,6.00
2023-01-06T10:59:04.728Z,5.57
2023-01-06T11:01:35.047Z,4.93
2023-01-06T11:04:10.523Z,7.53
2023-01-06T11:06:40.900Z,4.17
2023-01-06T11:09:23.132Z,10.23
2023-01-06T11:11:51.883Z,4.80
2023-01-06T11:14:20.785Z,5.00
2023-01-06T11:16:57.652Z,3.50
2023-01-06T11:19:33.489Z,2.77
2023-01-06T11:22:01.521Z,4.70
2023-01-06T11:24:30.918Z,3.87
2023-01-06T11:26:59.798Z,2.70
2023-01-06T11:29:30.123Z,2.87
2023-01-06T11:32:02.619Z,3.77
2023-01-06T11:34:31.077Z,3.93
2023-01-06T11:36:59.798Z,7.03
2023-01-06T11:39:30.287Z,6.80
2023-01-06T11:42:04.185Z,6.60
2023-01-06T11:44:33.315Z,9.33
2023-01-06T11:47:04.744Z,1115.30
2023-01-06T11:49:35.370Z,1999.90
2023-01-06T11:52:04.118Z,1718.97
2023-01-06T11:54:34.081Z,1999.90
2023-01-06T11:57:04.304Z,1999.90
2023-01-06T11:59:37.698Z,1999.90
2023-01-06T12:02:12.785Z,1999.90
2023-01-06T12:04:45.567Z,1999.90
2023-01-06T12:07:16.712Z,1999.90
2023-01-06T12:09:46.277Z,311.50
2023-01-06T12:12:17.840Z,236.43
2023-01-06T12:14:45.988Z,98.27
2023-01-06T12:17:17.798Z,72.43
2023-01-06T12:19:48.120Z,13.23
2023-01-06T12:22:20.919Z,8.20
2023-01-06T12:24:50.926Z,5.57
2023-01-06T12:27:23.403Z,5.13
2023-01-06T12:29:52.217Z,7.53
2023-01-06T12:32:22.579Z,7.60
2023-01-06T12:34:52.023Z,5.60
2023-01-06T12:37:21.893Z,6.77
2023-01-06T12:39:56.723Z,5.70
2023-01-06T12:42:27.939Z,5.13
2023-01-06T12:44:57.777Z,6.30
2023-01-06T12:47:29.538Z,6.77
2023-01-06T12:50:00.597Z,6.53
2023-01-06T12:52:31.634Z,5.23
2023-01-06T12:55:00.491Z,10.13
2023-01-06T12:57:38.300Z,7.17
2023-01-06T13:00:16.440Z,6.03
2023-01-06T13:02:54.039Z,7.37
2023-01-06T13:05:42.918Z,7.40
2023-01-06T13:08:18.501Z,6.60
2023-01-06T13:10:48.605Z,5.43
2023-01-06T13:13:33.217Z,8.00
2023-01-06T13:16:03.071Z,6.30
2023-01-06T13:18:35.208Z,5.17
2023-01-06T13:21:06.146Z,5.37
2023-01-06T13:23:50.799Z,4.93
2023-01-06T13:26:25.209Z,7.40
2023-01-06T13:28:59.532Z,4.97
2023-01-06T13:31:33.928Z,5.70
2023-01-06T13:34:20.024Z,5.63
2023-01-06T13:37:03.203Z,4.57
2023-01-06T13:39:34.820Z,5.10
2023-01-06T13:42:04.851Z,4.13
2023-01-06T13:44:35.641Z,5.50
2023-01-06T13:47:05.515Z,4.47
2023-01-06T13:49:35.455Z,4.63
2023-01-06T13:52:03.991Z,6.40
2023-01-06T13:54:51.246Z,6.87
2023-01-06T13:57:26.077Z,10.93
2023-01-06T13:59:54.549Z,10.80
2023-01-06T14:02:55.513Z,8.87
2023-01-06T14:05:43.804Z,11.10
2023-01-06T14:08:17.714Z,7.23
2023-01-06T14:10:46.254Z,8.80
2023-01-06T14:13:22.195Z,6.77
2023-01-06T14:15:56.243Z,9.47
2023-01-06T14:18:31.894Z,4.50
2023-01-06T14:21:01.884Z,2.73
2023-01-06T14:23:31.619Z,10.00
2023-01-06T14:25:59.775Z,5.53
2023-01-06T14:28:29.548Z,4.07
2023-01-06T14:31:12.430Z,5.23
2023-01-06T14:33:41.280Z,3.53
2023-01-06T14:36:12.758Z,6.20
2023-01-06T14:38:45.080Z,4.97
2023-01-06T14:41:19.129Z,4.47
2023-01-06T14:43:51.595Z,3.57
2023-01-06T14:46:20.924Z,4.73
2023-01-06T14:48:52.137Z,6.97
2023-01-06T14:51:21.395Z,3.57
2023-01-06T14:53:54.877Z,3.70
2023-01-06T14:56:24.407Z,3.27
2023-01-06T14:58:52.372Z,3.13
2023-01-06T15:01:24.846Z,4.47
2023-01-06T15:03:56.956Z,2.90
2023-01-06T15:06:25.665Z,6.43
2023-01-06T15:08:55.627Z,19.67
2023-01-06T15:11:27.664Z,5.90
2023-01-06T15:13:55.869Z,7.80
2023-01-06T15:16:28.564Z,3.63
2023-01-06T15:18:56.653Z,14.77
2023-01-06T15:21:25.880Z,6.97
2023-01-06T15:23:55.938Z,6.33
2023-01-06T15:26:25.635Z,4.23
2023-01-06T15:28:58.438Z,4.20
2023-01-06T15:31:26.824Z,3.80
2023-01-06T15:33:55.521Z,3.17
2023-01-06T15:36:24.381Z,1.73
2023-01-06T15:38:53.290Z,2.03
2023-01-06T15:41:34.706Z,3.20
2023-01-06T15:44:03.536Z,4.17
2023-01-06T15:46:38.939Z,4.23
2023-01-06T15:49:07.421Z,2.73
2023-01-06T15:51:35.590Z,4.10
2023-01-06T15:54:03.701Z,2.20
2023-01-06T15:56:33.148Z,2.23
2023-01-06T15:59:01.283Z,1.83
2023-01-06T16:01:29.374Z,2.17
2023-01-06T16:03:58.505Z,2.47
2023-01-06T16:06:27.222Z,3.30
2023-01-06T16:08:55.303Z,2.47
2023-01-06T16:11:41.645Z,2.40
2023-01-06T16:17:09.961Z,3.10
2023-01-06T16:19:39.039Z,2.60
2023-01-06T16:22:08.375Z,2.63
2023-01-06T16:24:38.937Z,3.00
2023-01-06T16:27:07.957Z,3.87
2023-01-06T16:29:36.746Z,3.40
2023-01-06T16:35:02.772Z,3.30
2023-01-06T16:37:34.320Z,5.67
2023-01-06T16:40:02.517Z,2.77
2023-01-06T16:42:41.359Z,3.07
2023-01-06T16:45:14.632Z,4.07
2023-01-06T16:47:42.882Z,3.23
2023-01-06T16:50:19.812Z,3.97
2023-01-06T16:52:49.393Z,3.33
2023-01-06T16:55:18.447Z,4.33
2023-01-06T16:57:48.139Z,3.17
2023-01-06T17:00:17.194Z,5.97
2023-01-06T17:02:45.513Z,3.43
2023-01-06T17:05:22.653Z,5.93
2023-01-06T17:07:50.662Z,3.67
2023-01-06T17:10:21.527Z,4.63
2023-01-06T17:13:10.796Z,2.63
2023-01-06T17:15:38.929Z,3.23
2023-01-06T17:18:15.031Z,3.50
2023-01-06T17:20:45.048Z,3.10
2023-01-06T17:23:13.023Z,7.57
2023-01-06T17:25:43.288Z,8.27
2023-01-06T17:28:16.499Z,4.77
2023-01-06T17:30:44.493Z,7.37
2023-01-06T17:33:13.308Z,6.70
2023-01-06T17:35:45.764Z,7.00
2023-01-06T17:38:17.983Z,4.40
2023-01-06T17:40:45.938Z,6.27
2023-01-06T17:43:18.925Z,3.90
2023-01-06T17:45:46.989Z,7.03
2023-01-06T17:48:15.000Z,4.57
2023-01-06T17:50:45.028Z,5.47
2023-01-06T17:53:31.290Z,6.27
2023-01-06T17:56:01.307Z,7.20
2023-01-06T17:58:31.179Z,6.27
2023-01-06T18:01:00.308Z,5.27
2023-01-06T18:03:29.450Z,8.07
2023-01-06T18:06:15.851Z,4.80
2023-01-06T18:08:44.756Z,6.13
2023-01-06T18:11:23.757Z,5.43
2023-01-06T18:13:52.330Z,5.23
2023-01-06T18:16:27.024Z,5.40
2023-01-06T18:18:55.531Z,6.37
2023-01-06T18:21:27.394Z,8.17
2023-01-06T18:23:55.364Z,6.97
2023-01-06T18:26:37.693Z,7.13
2023-01-06T18:29:12.859Z,7.80
2023-01-06T18:31:41.587Z,9.43
2023-01-06T18:34:19.923Z,9.80
2023-01-06T18:36:49.657Z,6.50
2023-01-06T18:39:24.027Z,7.20
2023-01-06T18:41:58.204Z,6.87
2023-01-06T18:44:26.947Z,9.47
2023-01-06T18:46:55.106Z,6.80
2023-01-06T18:49:23.609Z,5.50
2023-01-06T18:51:51.615Z,10.93
2023-01-06T18:54:20.111Z,6.00
2023-01-06T18:56:48.125Z,5.43
2023-01-06T18:59:18.966Z,8.67
2023-01-06T19:01:48.383Z,6.37
2023-01-06T19:04:22.246Z,5.03
2023-01-06T19:06:51.841Z,6.83
2023-01-06T19:09:28.768Z,6.07
2023-01-06T19:12:00.484Z,5.63
2023-01-06T19:14:30.763Z,6.23
2023-01-06T19:17:00.059Z,7.63
2023-01-06T19:19:29.522Z,8.37
2023-01-06T19:22:09.244Z,6.83
2023-01-06T19:24:42.052Z,6.33
2023-01-06T19:27:33.957Z,8.50
2023-01-06T19:30:20.977Z,6.23
2023-01-06T19:32:48.987Z,9.00
2023-01-06T19:35:20.003Z,9.13
2023-01-06T19:37:48.021Z,6.40
2023-01-06T19:40:22.576Z,10.53
2023-01-06T19:42:50.604Z,7.63
2023-01-06T19:45:28.650Z,8.43
2023-01-06T19:47:56.734Z,7.93
2023-01-06T19:50:25.623Z,5.90
2023-01-06T19:52:56.787Z,6.83
2023-01-06T19:55:25.847Z,6.30
2023-01-06T19:57:55.338Z,7.03
2023-01-06T20:00:29.101Z,7.17
2023-01-06T20:02:58.904Z,8.67
2023-01-06T20:05:28.119Z,6.20
2023-01-06T20:07:56.327Z,7.43
2023-01-06T20:10:24.527Z,7.40
2023-01-06T20:12:52.578Z,8.67
2023-01-06T20:15:20.569Z,8.17
2023-01-06T20:17:50.089Z,9.90
2023-01-06T20:20:18.206Z,9.80
2023-01-06T20:22:46.304Z,8.93
2023-01-06T20:25:14.325Z,10.10
2023-01-06T20:27:45.400Z,14.33
2023-01-06T20:30:13.456Z,10.90
2023-01-06T20:32:41.531Z,10.53
2023-01-06T20:35:12.614Z,10.37
2023-01-06T20:37:40.946Z,12.80
2023-01-06T20:40:09.991Z,13.37
2023-01-06T20:42:37.965Z,16.23
2023-01-06T20:45:06.439Z,16.00
2023-01-06T20:47:34.494Z,13.13
2023-01-06T20:50:02.581Z,11.10
2023-01-06T20:52:32.080Z,13.87
2023-01-06T20:55:00.262Z,11.27
2023-01-06T20:57:28.333Z,11.97
2023-01-06T20:59:56.298Z,10.60
2023-01-06T21:02:24.500Z,11.63
2023-01-06T21:04:52.474Z,13.13
2023-01-06T21:07:20.388Z,11.17
2023-01-06T21:09:49.808Z,12.10
2023-01-06T21:12:17.799Z,11.40
2023-01-06T21:14:45.831Z,14.30
2023-01-06T21:17:13.800Z,14.00
2023-01-06T21:19:41.787Z,10.07
2023-01-06T21:22:09.877Z,11.47
2023-01-06T21:24:37.921Z,11.33
2023-01-06T21:27:07.681Z,11.37
2023-01-06T21:29:35.615Z,9.70
2023-01-06T21:32:03.568Z,9.60
2023-01-06T21:34:31.564Z,12.77
2023-01-06T21:36:59.492Z,14.27
2023-01-06T21:39:27.580Z,15.37
2023-01-06T21:42:13.038Z,18.13
2023-01-06T21:44:42.549Z,20.93
2023-01-06T21:47:11.490Z,27.47
2023-01-06T21:49:41.290Z,28.90
2023-01-06T21:52:09.968Z,27.13
2023-01-06T21:54:38.141Z,26.13
2023-01-06T21:57:06.173Z,29.57
2023-01-06T21:59:34.268Z,26.37
2023-01-06T22:02:03.844Z,27.70
2023-01-06T22:04:31.929Z,25.37
2023-01-06T22:07:01.235Z,26.43
2023-01-06T22:09:30.028Z,21.40
2023-01-06T22:11:58.583Z,21.87
2023-01-06T22:14:26.773Z,22.60
2023-01-06T22:16:54.868Z,23.53
2023-01-06T22:19:24.773Z,21.07
2023-01-06T22:21:52.923Z,23.77
2023-01-06T22:24:21.454Z,22.77
2023-01-06T22:26:49.416Z,20.00
2023-01-06T22:29:17.437Z,21.87
2023-01-06T22:31:45.426Z,21.50
2023-01-06T22:34:13.443Z,22.87
2023-01-06T22:36:42.873Z,20.70
2023-01-06T22:39:11.097Z,20.73
2023-01-06T22:41:39.113Z,21.60
2023-01-06T22:44:07.150Z,17.77
2023-01-06T22:46:35.202Z,17.77
2023-01-06T22:49:03.221Z,17.50
2023-01-06T22:51:32.207Z,13.10
2023-01-06T22:54:01.631Z,12.17
2023-01-06T22:56:29.600Z,12.87
2023-01-06T22:58:57.587Z,11.03
2023-01-06T23:01:25.647Z,11.00
2023-01-06T23:03:53.677Z,13.60
2023-01-06T23:06:21.788Z,9.97
2023-01-06T23:08:59.629Z,10.03
2023-01-06T23:11:31.543Z,8.53
2023-01-06T23:14:00.025Z,9.67
2023-01-06T23:16:30.318Z,8.30
2023-01-06T23:18:58.550Z,6.27
2023-01-06T23:21:28.001Z,6.33
2023-01-06T23:23:56.071Z,6.40
2023-01-06T23:26:25.148Z,5.53
2023-01-06T23:28:54.910Z,7.70
2023-01-06T23:31:23.904Z,4.93
2023-01-06T23:33:52.932Z,5.00
2023-01-06T23:36:21.420Z,5.30
2023-01-06T23:38:49.466Z,5.37
2023-01-06T23:41:18.008Z,5.77
2023-01-06T23:43:46.069Z,7.47
2023-01-06T23:46:16.469Z,4.10
2023-01-06T23:48:44.520Z,5.17
2023-01-06T23:51:13.588Z,5.50
2023-01-06T23:53:41.812Z,6.07
2023-01-06T23:56:11.231Z,4.80
2023-01-06T23:58:39.867Z,6.07
